createdAt,value
2019-02-09T00:00:01.382Z,2.43
2019-02-09T00:02:34.712Z,2.46
2019-02-09T00:05:06.457Z,2.51
2019-02-09T00:07:38.152Z,2.56
2019-02-09T00:10:09.969Z,2.64
2019-02-09T00:12:41.674Z,2.66
2019-02-09T00:15:13.288Z,2.69
2019-02-09T00:17:45.001Z,2.77
2019-02-09T00:20:16.699Z,2.79
2019-02-09T00:22:48.399Z,2.83
2019-02-09T00:25:20.071Z,2.83
2019-02-09T00:27:51.674Z,2.84
2019-02-09T00:30:23.379Z,2.84
2019-02-09T00:32:55.056Z,2.84
2019-02-09T00:35:26.670Z,2.73
2019-02-09T00:37:58.368Z,2.76
2019-02-09T00:40:30.051Z,2.77
2019-02-09T00:43:01.738Z,2.73
2019-02-09T00:45:33.363Z,2.71
2019-02-09T00:48:04.984Z,2.77
2019-02-09T00:50:36.659Z,2.76
2019-02-09T00:53:08.307Z,2.78
2019-02-09T00:55:39.958Z,2.75
2019-02-09T00:58:11.549Z,2.79
2019-02-09T01:00:43.269Z,2.78
2019-02-09T01:03:14.915Z,2.79
2019-02-09T01:05:46.942Z,2.80
2019-02-09T01:08:18.552Z,2.78
2019-02-09T01:10:50.257Z,2.84
2019-02-09T01:13:21.924Z,2.79
2019-02-09T01:15:53.590Z,2.81
2019-02-09T01:18:25.185Z,2.83
2019-02-09T01:20:56.806Z,2.92
2019-02-09T01:23:28.467Z,2.93
2019-02-09T01:26:00.054Z,2.96
2019-02-09T01:28:31.664Z,2.99
2019-02-09T01:31:03.257Z,3.02
2019-02-09T01:33:34.934Z,3.01
2019-02-09T01:36:07.521Z,2.99
2019-02-09T01:38:39.172Z,3.10
2019-02-09T01:41:10.784Z,2.99
2019-02-09T01:43:42.478Z,2.99
2019-02-09T01:46:14.251Z,2.98
2019-02-09T01:48:46.081Z,3.00
2019-02-09T01:51:17.745Z,2.98
2019-02-09T01:53:49.411Z,3.06
2019-02-09T01:56:21.074Z,3.04
2019-02-09T01:58:53.659Z,3.03
2019-02-09T02:01:25.323Z,2.94
2019-02-09T02:03:56.929Z,2.97
2019-02-09T02:06:28.593Z,3.01
2019-02-09T02:09:00.275Z,2.96
2019-02-09T02:11:33.494Z,2.93
2019-02-09T02:14:05.201Z,2.92
2019-02-09T02:16:36.873Z,2.88
2019-02-09T02:19:08.578Z,2.83
2019-02-09T02:21:40.232Z,2.79
2019-02-09T02:24:11.919Z,2.79
2019-02-09T02:26:43.515Z,2.78
2019-02-09T02:29:15.425Z,2.80
2019-02-09T02:31:47.330Z,2.79
2019-02-09T02:34:19.207Z,2.82
2019-02-09T02:36:50.859Z,2.84
2019-02-09T02:39:22.617Z,2.83
2019-02-09T02:41:54.299Z,2.86
2019-02-09T02:44:25.928Z,2.86
2019-02-09T02:46:57.615Z,2.86
2019-02-09T02:49:29.238Z,2.84
2019-02-09T02:52:00.850Z,2.89
2019-02-09T02:54:32.550Z,2.94
2019-02-09T02:57:04.147Z,2.87
2019-02-09T02:59:35.825Z,2.86
2019-02-09T03:02:07.489Z,2.86
2019-02-09T03:04:39.202Z,2.91
2019-02-09T03:07:10.886Z,2.93
2019-02-09T03:09:42.574Z,2.89
2019-02-09T03:12:14.294Z,2.99
2019-02-09T03:14:46.152Z,2.98
2019-02-09T03:17:17.778Z,2.99
2019-02-09T03:19:49.467Z,3.01
2019-02-09T03:22:21.083Z,2.97
2019-02-09T03:24:52.683Z,2.99
2019-02-09T03:27:24.420Z,2.99
2019-02-09T03:29:56.992Z,3.04
2019-02-09T03:32:28.619Z,3.00
2019-02-09T03:35:00.357Z,3.05
2019-02-09T03:37:32.029Z,3.04
2019-02-09T03:40:03.669Z,3.01
2019-02-09T03:42:35.274Z,3.05
2019-02-09T03:45:09.117Z,3.04
2019-02-09T03:47:40.717Z,3.01
2019-02-09T03:50:13.275Z,3.01
2019-02-09T03:52:44.982Z,2.96
2019-02-09T03:55:16.667Z,2.95
2019-02-09T03:57:48.289Z,2.95
2019-02-09T04:00:21.519Z,2.96
2019-02-09T04:02:53.118Z,2.89
2019-02-09T04:05:24.750Z,2.89
2019-02-09T04:07:56.435Z,2.93
2019-02-09T04:10:28.077Z,2.91
2019-02-09T04:12:59.674Z,2.89
2019-02-09T04:15:31.349Z,2.89
2019-02-09T04:18:03.015Z,2.89
2019-02-09T04:20:35.115Z,2.85
2019-02-09T04:23:06.745Z,2.94
2019-02-09T04:25:38.409Z,2.91
2019-02-09T04:28:10.074Z,2.93
2019-02-09T04:30:41.700Z,2.94
2019-02-09T04:33:13.427Z,2.85
2019-02-09T04:35:45.170Z,2.89
2019-02-09T04:38:16.831Z,2.90
2019-02-09T04:40:48.431Z,2.90
2019-02-09T04:43:20.118Z,2.93
2019-02-09T04:45:51.795Z,2.93
2019-02-09T04:48:23.465Z,3.03
2019-02-09T04:50:55.165Z,2.98
2019-02-09T04:53:26.760Z,3.05
2019-02-09T04:55:58.591Z,2.97
2019-02-09T04:58:30.259Z,2.96
2019-02-09T05:01:01.995Z,2.95
2019-02-09T05:03:37.620Z,2.99
2019-02-09T05:06:10.935Z,2.99
2019-02-09T05:08:42.674Z,2.97
2019-02-09T05:11:14.498Z,2.99
2019-02-09T05:13:46.268Z,2.99
2019-02-09T05:16:18.474Z,2.99
2019-02-09T05:18:50.097Z,2.98
2019-02-09T05:21:21.765Z,2.96
2019-02-09T05:23:53.352Z,2.95
2019-02-09T05:26:24.971Z,2.95
2019-02-09T05:28:56.569Z,2.95
2019-02-09T05:31:28.185Z,2.99
2019-02-09T05:33:59.846Z,2.98
2019-02-09T05:36:31.785Z,2.99
2019-02-09T05:39:04.882Z,2.96
2019-02-09T05:41:37.448Z,2.96
2019-02-09T05:44:09.099Z,2.99
2019-02-09T05:46:40.895Z,3.01
2019-02-09T05:49:12.642Z,2.99
2019-02-09T05:51:44.326Z,3.00
2019-02-09T05:54:16.162Z,2.97
2019-02-09T05:56:47.821Z,2.94
2019-02-09T05:59:20.497Z,2.92
2019-02-09T06:01:52.105Z,2.94
2019-02-09T06:04:23.866Z,2.94
2019-02-09T06:06:55.978Z,2.89
2019-02-09T06:09:27.593Z,2.94
2019-02-09T06:11:59.313Z,2.93
2019-02-09T06:14:30.931Z,2.93
2019-02-09T06:17:03.702Z,2.94
2019-02-09T06:19:35.312Z,2.93
2019-02-09T06:22:06.914Z,2.91
2019-02-09T06:24:38.574Z,2.89
2019-02-09T06:27:10.294Z,2.89
2019-02-09T06:29:41.986Z,2.91
2019-02-09T06:32:13.607Z,2.92
2019-02-09T06:34:45.299Z,2.90
2019-02-09T06:37:16.928Z,2.94
2019-02-09T06:39:48.585Z,2.94
2019-02-09T06:42:20.214Z,2.93
2019-02-09T06:44:51.868Z,2.94
2019-02-09T06:47:23.492Z,2.93
2019-02-09T06:49:55.634Z,2.91
2019-02-09T06:52:27.286Z,2.90
2019-02-09T06:54:58.875Z,2.90
2019-02-09T06:57:30.644Z,2.90
2019-02-09T07:00:02.257Z,2.93
2019-02-09T07:02:35.054Z,2.96
2019-02-09T07:05:07.511Z,3.01
2019-02-09T07:07:39.297Z,3.04
2019-02-09T07:10:11.924Z,3.05
2019-02-09T07:12:43.683Z,3.05
2019-02-09T07:15:18.069Z,3.15
2019-02-09T07:17:49.688Z,3.12
2019-02-09T07:20:21.269Z,3.12
2019-02-09T07:22:52.962Z,3.15
2019-02-09T07:25:25.122Z,3.16
2019-02-09T07:27:56.840Z,3.14
2019-02-09T07:30:29.005Z,3.14
2019-02-09T07:33:00.759Z,3.13
2019-02-09T07:35:32.428Z,3.14
2019-02-09T07:38:04.105Z,3.17
2019-02-09T07:40:35.705Z,3.19
2019-02-09T07:43:08.276Z,3.25
2019-02-09T07:45:39.946Z,3.34
2019-02-09T07:48:11.624Z,3.35
2019-02-09T07:50:43.302Z,3.34
2019-02-09T07:53:14.915Z,3.41
2019-02-09T07:55:46.730Z,3.32
2019-02-09T07:58:18.478Z,3.48
2019-02-09T08:00:50.083Z,3.73
2019-02-09T08:03:21.787Z,3.79
2019-02-09T08:05:53.460Z,3.74
2019-02-09T08:08:25.101Z,3.83
2019-02-09T08:10:56.963Z,4.07
2019-02-09T08:13:28.596Z,4.21
2019-02-09T08:16:00.223Z,4.58
2019-02-09T08:18:31.892Z,4.94
2019-02-09T08:21:03.544Z,5.09
2019-02-09T08:23:35.240Z,5.07
2019-02-09T08:26:06.958Z,5.06
2019-02-09T08:28:39.173Z,4.92
2019-02-09T08:31:11.774Z,4.93
2019-02-09T08:33:45.453Z,4.70
2019-02-09T08:36:17.703Z,4.60
2019-02-09T08:38:49.523Z,4.44
2019-02-09T08:41:21.142Z,4.42
2019-02-09T08:43:53.842Z,4.38
2019-02-09T08:46:25.619Z,4.33
2019-02-09T08:48:57.476Z,4.39
2019-02-09T08:51:30.411Z,4.41
2019-02-09T08:54:02.193Z,4.44
2019-02-09T08:56:33.922Z,4.43
2019-02-09T08:59:05.627Z,4.51
2019-02-09T09:01:37.429Z,4.59
2019-02-09T09:04:09.247Z,4.63
2019-02-09T09:06:41.018Z,4.62
2019-02-09T09:09:13.496Z,4.68
2019-02-09T09:11:45.400Z,4.82
2019-02-09T09:14:17.107Z,4.91
2019-02-09T09:16:48.916Z,5.00
2019-02-09T09:19:20.652Z,4.83
2019-02-09T09:22:29.999Z,4.53
2019-02-09T09:25:01.655Z,4.53
2019-02-09T09:27:33.391Z,4.30
2019-02-09T09:30:07.053Z,4.38
2019-02-09T09:32:38.749Z,4.36
2019-02-09T09:35:10.525Z,4.44
2019-02-09T09:37:42.240Z,4.49
2019-02-09T09:40:20.078Z,4.52
2019-02-09T09:42:51.760Z,4.85
2019-02-09T09:45:25.603Z,5.01
2019-02-09T09:47:57.290Z,5.30
2019-02-09T09:50:29.150Z,5.37
2019-02-09T09:53:00.761Z,5.31
2019-02-09T09:55:32.483Z,5.30
2019-02-09T09:58:04.244Z,5.55
2019-02-09T10:00:36.864Z,6.08
2019-02-09T10:03:08.544Z,6.58
2019-02-09T10:05:40.234Z,6.98
2019-02-09T10:08:11.854Z,7.43
2019-02-09T10:10:44.028Z,7.43
2019-02-09T10:13:15.665Z,6.84
2019-02-09T10:15:47.529Z,6.76
2019-02-09T10:18:19.487Z,6.59
2019-02-09T10:20:51.174Z,6.75
2019-02-09T10:23:22.777Z,6.90
2019-02-09T10:25:54.461Z,6.71
2019-02-09T10:28:26.184Z,6.76
2019-02-09T10:30:57.885Z,6.69
2019-02-09T10:33:29.608Z,6.72
2019-02-09T10:36:01.324Z,6.54
2019-02-09T10:38:32.993Z,6.45
2019-02-09T10:41:04.711Z,6.43
2019-02-09T10:43:37.790Z,6.47
2019-02-09T10:46:09.540Z,6.51
2019-02-09T10:48:41.242Z,6.56
2019-02-09T10:51:12.961Z,6.79
2019-02-09T10:53:44.672Z,7.05
2019-02-09T10:56:16.661Z,7.17
2019-02-09T10:58:48.374Z,7.41
2019-02-09T11:01:21.883Z,7.83
2019-02-09T11:03:53.565Z,7.72
2019-02-09T11:06:25.191Z,7.85
2019-02-09T11:08:56.898Z,7.98
2019-02-09T11:11:28.608Z,8.10
2019-02-09T11:14:00.328Z,8.47
2019-02-09T11:16:32.028Z,8.66
2019-02-09T11:19:03.729Z,8.70
2019-02-09T11:21:35.477Z,9.26
2019-02-09T11:24:07.213Z,9.46
2019-02-09T11:26:39.837Z,9.42
2019-02-09T11:29:11.887Z,9.07
2019-02-09T11:31:47.614Z,8.59
2019-02-09T11:34:19.685Z,8.60
2019-02-09T11:36:51.307Z,9.46
2019-02-09T11:39:23.006Z,9.16
2019-02-09T11:41:54.667Z,9.22
2019-02-09T11:44:26.378Z,8.73
2019-02-09T11:46:58.055Z,8.70
2019-02-09T11:49:29.762Z,9.46
2019-02-09T11:52:01.481Z,10.23
2019-02-09T11:54:33.167Z,11.03
2019-02-09T11:57:04.888Z,11.34
2019-02-09T11:59:36.590Z,10.86
2019-02-09T12:02:09.632Z,11.16
2019-02-09T12:04:41.383Z,11.08
2019-02-09T12:07:13.106Z,11.52
2019-02-09T12:09:44.746Z,11.16
2019-02-09T12:12:16.705Z,11.10
2019-02-09T12:14:48.339Z,10.39
2019-02-09T12:17:19.989Z,9.89
2019-02-09T12:19:51.700Z,9.67
2019-02-09T12:22:23.396Z,9.60
2019-02-09T12:24:55.067Z,9.72
2019-02-09T12:27:26.773Z,9.53
2019-02-09T12:29:59.098Z,9.51
2019-02-09T12:32:32.811Z,9.58
2019-02-09T12:35:05.029Z,9.58
2019-02-09T12:37:36.811Z,9.43
2019-02-09T12:40:10.643Z,9.54
2019-02-09T12:42:42.351Z,9.50
2019-02-09T12:45:15.044Z,9.79
2019-02-09T12:47:46.816Z,9.90
2019-02-09T12:50:19.066Z,9.72
2019-02-09T12:52:50.764Z,9.77
2019-02-09T12:55:22.544Z,9.75
2019-02-09T12:57:54.226Z,10.11
2019-02-09T13:00:56.370Z,10.10
2019-02-09T13:03:31.372Z,9.76
2019-02-09T13:06:01.617Z,9.88
2019-02-09T13:08:37.477Z,9.47
2019-02-09T13:11:17.947Z,9.31
2019-02-09T13:13:53.351Z,9.15
2019-02-09T13:16:25.767Z,9.01
2019-02-09T13:18:57.536Z,8.98
2019-02-09T13:21:33.607Z,9.06
2019-02-09T13:24:05.570Z,8.94
2019-02-09T13:26:39.424Z,9.01
2019-02-09T13:33:38.848Z,9.10
2019-02-09T13:36:11.857Z,9.01
2019-02-09T13:39:17.129Z,9.05
2019-02-09T13:42:23.549Z,9.33
2019-02-09T13:45:25.604Z,9.34
2019-02-09T13:48:10.928Z,9.17
2019-02-09T13:50:51.116Z,9.40
2019-02-09T13:53:51.670Z,9.41
2019-02-09T13:59:55.485Z,9.63
2019-02-09T14:02:36.973Z,9.68
2019-02-09T14:06:12.258Z,9.48
2019-02-09T14:09:25.848Z,9.28
2019-02-09T14:12:11.142Z,9.19
2019-02-09T14:14:52.336Z,9.36
2019-02-09T14:17:59.212Z,9.40
2019-02-09T14:20:39.242Z,9.25
2019-02-09T14:24:01.982Z,9.07
2019-02-09T14:27:17.496Z,9.19
2019-02-09T14:31:00.616Z,9.15
2019-02-09T14:33:44.172Z,9.00
2019-02-09T14:36:23.252Z,8.93
2019-02-09T14:39:05.063Z,8.87
2019-02-09T14:42:28.880Z,8.77
2019-02-09T14:45:07.106Z,8.88
2019-02-09T14:47:57.542Z,8.78
2019-02-09T14:50:32.579Z,8.80
2019-02-09T14:53:09.956Z,8.74
2019-02-09T14:55:47.883Z,8.78
2019-02-09T14:58:26.448Z,8.68
2019-02-09T15:01:04.351Z,8.65
2019-02-09T15:03:47.453Z,8.58
2019-02-09T15:06:37.208Z,8.52
2019-02-09T15:09:17.583Z,8.45
2019-02-09T15:12:11.802Z,8.45
2019-02-09T15:15:24.171Z,8.29
2019-02-09T15:21:20.820Z,8.30
2019-02-09T15:23:54.916Z,8.15
2019-02-09T15:26:31.019Z,8.19
2019-02-09T15:29:08.046Z,8.03
2019-02-09T15:31:41.788Z,7.90
2019-02-09T15:34:20.516Z,7.81
2019-02-09T15:36:55.156Z,7.74
2019-02-09T15:39:32.444Z,7.65
2019-02-09T15:42:09.651Z,7.59
2019-02-09T15:44:46.335Z,7.51
2019-02-09T15:47:20.421Z,7.48
2019-02-09T15:49:57.194Z,7.48
2019-02-09T15:52:33.626Z,7.39
2019-02-09T15:55:12.871Z,7.29
2019-02-09T15:57:50.088Z,7.21
2019-02-09T16:00:28.259Z,7.16
2019-02-09T16:03:02.291Z,7.07
2019-02-09T16:05:37.540Z,7.04
2019-02-09T16:08:14.385Z,7.01
2019-02-09T16:10:49.431Z,6.98
2019-02-09T16:13:27.381Z,6.97
2019-02-09T16:16:05.503Z,6.94
2019-02-09T16:18:43.477Z,7.03
2019-02-09T16:21:22.968Z,7.01
2019-02-09T16:24:00.422Z,6.97
2019-02-09T16:26:40.931Z,6.99
2019-02-09T16:29:28.711Z,6.95
2019-02-09T16:32:07.485Z,6.89
2019-02-09T16:34:43.913Z,6.87
2019-02-09T16:37:28.183Z,6.85
2019-02-09T16:40:06.187Z,6.80
2019-02-09T16:42:41.076Z,6.80
2019-02-09T16:45:26.873Z,6.76
2019-02-09T16:48:10.366Z,6.73
2019-02-09T16:50:50.578Z,6.72
2019-02-09T16:53:27.248Z,6.72
2019-02-09T16:56:08.402Z,6.70
2019-02-09T16:59:44.393Z,6.69
2019-02-09T17:03:30.859Z,6.66
2019-02-09T17:06:18.156Z,6.58
2019-02-09T17:08:53.484Z,6.54
2019-02-09T17:11:29.510Z,6.53
2019-02-09T17:14:03.478Z,6.49
2019-02-09T17:16:38.775Z,6.48
2019-02-09T17:19:17.413Z,6.42
2019-02-09T17:21:51.709Z,6.39
2019-02-09T17:24:26.915Z,6.33
2019-02-09T17:27:15.864Z,6.31
2019-02-09T17:29:50.133Z,6.22
2019-02-09T17:32:27.117Z,6.19
2019-02-09T17:35:04.864Z,6.14
2019-02-09T17:50:08.536Z,5.76
2019-02-09T17:52:44.663Z,5.73
2019-02-09T17:55:24.359Z,5.67
2019-02-09T17:58:09.878Z,5.62
2019-02-09T18:00:44.740Z,5.59
2019-02-09T18:03:25.931Z,5.59
2019-02-09T18:06:00.933Z,5.57
2019-02-09T18:08:35.807Z,5.51
2019-02-09T18:11:13.616Z,5.52
2019-02-09T18:14:27.790Z,5.52
2019-02-09T18:17:06.376Z,5.51
2019-02-09T18:19:48.038Z,5.52
2019-02-09T18:22:26.669Z,5.46
2019-02-09T18:25:05.701Z,5.52
2019-02-09T18:27:43.807Z,5.54
2019-02-09T18:30:25.300Z,5.54
2019-02-09T18:33:14.676Z,5.62
2019-02-09T18:39:09.308Z,5.66
2019-02-09T18:41:55.643Z,5.63
2019-02-09T18:44:38.055Z,5.73
2019-02-09T18:47:13.896Z,5.70
2019-02-09T18:49:52.798Z,5.69
2019-02-09T18:52:28.175Z,5.68
2019-02-09T18:55:07.896Z,5.73
2019-02-09T18:57:41.826Z,5.72
2019-02-09T19:00:18.544Z,5.76
2019-02-09T19:02:55.636Z,5.71
2019-02-09T19:05:29.439Z,5.74
2019-02-09T19:08:06.452Z,5.81
2019-02-09T19:11:05.727Z,5.78
2019-02-09T19:13:49.875Z,5.72
2019-02-09T19:16:27.899Z,5.73
2019-02-09T19:19:03.238Z,5.68
2019-02-09T19:21:49.450Z,5.62
2019-02-09T19:24:25.716Z,5.62
2019-02-09T19:27:03.545Z,5.59
2019-02-09T19:29:42.923Z,5.62
2019-02-09T19:32:22.239Z,5.59
2019-02-09T19:34:59.455Z,5.58
2019-02-09T19:37:37.277Z,5.56
2019-02-09T19:40:13.652Z,5.60
2019-02-09T19:42:51.282Z,5.56
2019-02-09T19:45:29.641Z,5.52
2019-02-09T19:48:04.153Z,5.59
2019-02-09T19:50:42.984Z,5.56
2019-02-09T19:53:19.283Z,5.55
2019-02-09T19:55:59.901Z,5.52
2019-02-09T19:58:35.226Z,5.50
2019-02-09T20:01:11.333Z,5.47
2019-02-09T20:03:50.078Z,5.48
2019-02-09T20:06:26.326Z,5.48
2019-02-09T20:09:04.795Z,5.52
2019-02-09T20:11:39.815Z,5.50
2019-02-09T20:14:23.786Z,5.50
2019-02-09T20:16:57.634Z,5.48
2019-02-09T20:19:40.379Z,5.44
2019-02-09T20:22:19.534Z,5.36
2019-02-09T20:24:53.185Z,5.33
2019-02-09T20:27:24.912Z,5.33
2019-02-09T20:29:57.644Z,5.29
2019-02-09T20:32:29.716Z,5.24
2019-02-09T20:35:01.498Z,5.25
2019-02-09T20:37:33.212Z,5.28
2019-02-09T20:40:05.506Z,5.28
2019-02-09T20:42:37.234Z,5.23
2019-02-09T20:45:10.683Z,5.23
2019-02-09T20:47:47.944Z,5.24
2019-02-09T20:50:15.934Z,5.24
2019-02-09T20:52:47.633Z,5.31
2019-02-09T20:55:19.390Z,5.34
2019-02-09T20:57:51.309Z,5.34
2019-02-09T21:00:24.187Z,5.38
2019-02-09T21:02:57.987Z,5.50
2019-02-09T21:05:35.970Z,5.59
2019-02-09T21:08:03.437Z,5.61
2019-02-09T21:10:35.350Z,5.70
2019-02-09T21:13:07.351Z,5.74
2019-02-09T21:15:39.062Z,5.84
2019-02-09T21:18:10.751Z,5.91
2019-02-09T21:20:42.473Z,5.92
2019-02-09T21:23:14.187Z,5.95
2019-02-09T21:25:46.100Z,5.99
2019-02-09T21:28:17.795Z,6.05
2019-02-09T21:30:49.489Z,6.06
2019-02-09T21:33:21.414Z,6.07
2019-02-09T21:35:53.339Z,6.09
2019-02-09T21:38:25.029Z,6.08
2019-02-09T21:40:56.925Z,6.06
2019-02-09T21:43:30.390Z,6.04
2019-02-09T21:46:02.188Z,6.01
2019-02-09T21:48:33.910Z,5.96
2019-02-09T21:51:05.993Z,5.96
2019-02-09T21:53:37.827Z,6.02
2019-02-09T21:56:09.841Z,6.04
2019-02-09T21:58:41.919Z,6.04
2019-02-09T22:01:13.717Z,6.08
2019-02-09T22:03:47.133Z,6.11
2019-02-09T22:06:18.849Z,6.13
2019-02-09T22:08:50.566Z,6.15
2019-02-09T22:11:22.373Z,6.09
2019-02-09T22:13:55.110Z,6.01
2019-02-09T22:16:26.864Z,5.97
2019-02-09T22:18:59.249Z,5.91
2019-02-09T22:21:31.213Z,5.86
2019-02-09T22:24:03.001Z,5.81
2019-02-09T22:26:34.763Z,5.77
2019-02-09T22:29:06.462Z,5.73
2019-02-09T22:31:38.486Z,5.67
2019-02-09T22:34:10.314Z,5.68
2019-02-09T22:36:42.092Z,5.66
2019-02-09T22:39:13.771Z,5.69
2019-02-09T22:41:49.182Z,5.67
2019-02-09T22:44:19.419Z,5.72
2019-02-09T22:46:51.954Z,5.68
2019-02-09T22:49:23.630Z,5.65
2019-02-09T22:51:55.233Z,5.64
2019-02-09T22:54:26.840Z,5.60
2019-02-09T22:56:58.498Z,5.56
2019-02-09T22:59:30.103Z,5.49
2019-02-09T23:02:01.810Z,5.49
2019-02-09T23:05:10.805Z,5.45
2019-02-09T23:07:42.861Z,5.44
2019-02-09T23:10:15.304Z,5.41
2019-02-09T23:12:48.715Z,5.35
2019-02-09T23:15:20.312Z,5.34
2019-02-09T23:17:51.983Z,5.33
2019-02-09T23:20:23.577Z,5.31
2019-02-09T23:22:55.264Z,5.29
2019-02-09T23:25:26.941Z,5.28
2019-02-09T23:27:59.636Z,5.22
2019-02-09T23:30:31.757Z,5.18
2019-02-09T23:33:03.440Z,5.13
2019-02-09T23:35:35.108Z,5.12
2019-02-09T23:38:06.722Z,5.06
2019-02-09T23:40:38.384Z,5.04
2019-02-09T23:43:10.054Z,5.03
2019-02-09T23:45:41.733Z,4.98
2019-02-09T23:48:13.418Z,4.94
2019-02-09T23:50:45.208Z,4.88
2019-02-09T23:53:16.905Z,4.83
2019-02-09T23:55:48.499Z,4.86
2019-02-09T23:58:20.308Z,4.83
